createdAt,value
2023-09-06T00:03:19.693Z,1.13
2023-09-06T00:08:22.398Z,1.77
2023-09-06T00:13:25.024Z,1.02
2023-09-06T00:18:29.092Z,1.10
2023-09-06T00:23:32.504Z,0.85
2023-09-06T00:28:35.319Z,1.05
2023-09-06T00:33:38.019Z,1.00
2023-09-06T00:38:40.785Z,1.60
2023-09-06T00:43:43.527Z,4.45
2023-09-06T00:48:53.255Z,6.50
2023-09-06T00:53:56.308Z,4.88
2023-09-06T00:59:02.385Z,3.05
2023-09-06T01:04:05.486Z,1.27
2023-09-06T01:09:08.527Z,1.40
2023-09-06T01:14:11.389Z,0.77
2023-09-06T01:19:16.419Z,1.42
2023-09-06T01:24:19.377Z,0.90
2023-09-06T01:29:24.196Z,1.20
2023-09-06T01:34:27.307Z,1.20
2023-09-06T01:39:30.395Z,1.33
2023-09-06T01:44:33.545Z,1.10
2023-09-06T01:49:36.282Z,1.23
2023-09-06T01:54:38.898Z,1.00
2023-09-06T01:59:41.555Z,1.15
2023-09-06T02:04:44.679Z,1.63
2023-09-06T02:09:47.316Z,0.93
2023-09-06T02:14:57.384Z,1.17
2023-09-06T02:20:07.473Z,1.42
2023-09-06T02:25:16.320Z,0.68
2023-09-06T02:30:19.423Z,0.90
2023-09-06T02:35:22.214Z,1.23
2023-09-06T02:40:24.805Z,1.00
2023-09-06T02:45:38.034Z,1.30
2023-09-06T02:50:46.273Z,1.20
2023-09-06T02:55:54.507Z,1.00
2023-09-06T03:00:59.656Z,1.25
2023-09-06T03:06:06.471Z,1.08
2023-09-06T03:11:17.438Z,1.88
2023-09-06T03:16:24.459Z,0.80
2023-09-06T03:21:27.087Z,0.63
2023-09-06T03:26:29.679Z,1.00
2023-09-06T03:31:41.045Z,0.90
2023-09-06T03:36:47.473Z,1.30
2023-09-06T03:41:50.219Z,0.90
2023-09-06T03:46:53.455Z,2.65
2023-09-06T03:51:56.939Z,1.10
2023-09-06T03:57:02.196Z,1.00
2023-09-06T04:02:08.888Z,0.85
2023-09-06T04:07:11.609Z,1.05
2023-09-06T04:12:16.546Z,0.80
2023-09-06T04:17:22.204Z,1.20
2023-09-06T04:22:25.123Z,1.42
2023-09-06T04:27:27.916Z,2.45
2023-09-06T04:32:30.778Z,0.95
2023-09-06T04:37:33.640Z,0.95
2023-09-06T04:42:36.574Z,0.80
2023-09-06T04:47:45.136Z,0.93
2023-09-06T04:52:52.011Z,1.42
2023-09-06T04:57:56.206Z,1.55
2023-09-06T05:03:00.344Z,1.15
2023-09-06T05:08:04.496Z,1.00
2023-09-06T05:13:13.355Z,0.70
2023-09-06T05:18:18.545Z,1.70
2023-09-06T05:23:22.105Z,0.93
2023-09-06T05:28:26.094Z,0.73
2023-09-06T05:33:37.038Z,1.30
2023-09-06T05:38:39.916Z,1.13
2023-09-06T05:43:43.231Z,1.20
2023-09-06T05:48:46.466Z,0.90
2023-09-06T05:53:49.268Z,1.20
2023-09-06T05:58:54.750Z,1.40
2023-09-06T06:03:57.441Z,1.35
2023-09-06T06:09:00.048Z,1.08
2023-09-06T06:14:10.445Z,0.50
2023-09-06T06:19:14.597Z,1.17
2023-09-06T06:24:17.464Z,1.25
2023-09-06T06:29:20.183Z,0.82
2023-09-06T06:34:22.874Z,1.65
2023-09-06T06:39:25.743Z,0.82
2023-09-06T06:44:29.479Z,0.80
2023-09-06T06:49:33.527Z,0.60
2023-09-06T06:54:40.509Z,0.85
2023-09-06T06:59:43.123Z,1.10
2023-09-06T07:04:45.753Z,1.70
2023-09-06T07:09:48.451Z,0.68
2023-09-06T07:14:52.362Z,0.57
2023-09-06T07:19:56.101Z,0.93
2023-09-06T07:25:00.333Z,1.25
2023-09-06T07:30:04.524Z,1.00
2023-09-06T07:35:08.086Z,0.70
2023-09-06T07:40:12.509Z,0.73
2023-09-06T07:45:16.096Z,0.70
2023-09-06T07:50:20.530Z,1.05
2023-09-06T07:55:24.767Z,1.58
2023-09-06T08:00:30.202Z,0.83
2023-09-06T08:05:34.944Z,0.85
2023-09-06T08:10:39.668Z,0.60
2023-09-06T08:15:45.664Z,0.75
2023-09-06T08:20:49.305Z,1.17
2023-09-06T08:25:53.410Z,0.93
2023-09-06T08:30:58.389Z,0.88
2023-09-06T08:41:10.336Z,0.70
2023-09-06T08:46:23.829Z,0.77
2023-09-06T08:51:33.717Z,0.93
2023-09-06T08:56:37.922Z,0.73
2023-09-06T09:01:41.379Z,0.80
2023-09-06T09:06:45.763Z,0.80
2023-09-06T09:11:54.539Z,1.30
2023-09-06T09:17:01.314Z,0.80
2023-09-06T09:22:09.487Z,0.90
2023-09-06T09:27:12.785Z,0.95
2023-09-06T09:32:16.969Z,0.75
2023-09-06T09:37:23.963Z,0.77
2023-09-06T09:42:28.336Z,2.20
2023-09-06T09:47:52.438Z,0.90
2023-09-06T09:53:02.682Z,0.80
2023-09-06T09:58:14.609Z,1.05
2023-09-06T10:03:20.333Z,1.77
2023-09-06T10:08:24.421Z,0.40
2023-09-06T10:13:29.350Z,1.27
2023-09-06T10:18:34.203Z,0.68
2023-09-06T10:23:44.806Z,0.55
2023-09-06T10:29:01.627Z,0.80
2023-09-06T10:34:05.868Z,1.27
2023-09-06T10:39:15.976Z,1.88
2023-09-06T10:44:19.466Z,0.75
2023-09-06T10:49:29.295Z,1.08
2023-09-06T10:54:39.814Z,1.33
2023-09-06T10:59:47.443Z,0.47
2023-09-06T11:05:20.749Z,1.00
2023-09-06T11:10:25.104Z,0.93
2023-09-06T11:15:29.540Z,0.85
2023-09-06T11:20:35.296Z,0.90
2023-09-06T11:25:39.718Z,0.60
2023-09-06T11:30:45.987Z,0.60
2023-09-06T11:36:00.571Z,0.73
2023-09-06T11:41:07.132Z,1.40
2023-09-06T11:46:13.462Z,0.85
2023-09-06T11:51:20.228Z,0.63
2023-09-06T11:56:37.777Z,0.95
2023-09-06T12:01:42.436Z,0.45
2023-09-06T12:06:46.764Z,0.80
2023-09-06T12:11:51.838Z,0.50
2023-09-06T12:16:58.098Z,0.70
2023-09-06T12:22:02.877Z,0.85
2023-09-06T12:32:13.037Z,0.32
2023-09-06T12:37:19.304Z,0.60
2023-09-06T12:42:23.028Z,1.00
2023-09-06T12:47:27.456Z,0.80
2023-09-06T12:52:30.939Z,0.80
2023-09-06T12:57:33.446Z,1.08
2023-09-06T13:02:36.120Z,0.52
2023-09-06T13:07:39.547Z,0.52
2023-09-06T13:12:43.656Z,0.80
2023-09-06T13:17:46.357Z,0.70
2023-09-06T13:22:49.060Z,0.60
2023-09-06T13:27:51.662Z,0.65
2023-09-06T13:32:54.257Z,0.40
2023-09-06T13:37:58.127Z,0.88
2023-09-06T13:43:03.354Z,0.95
2023-09-06T13:48:06.556Z,0.63
2023-09-06T13:53:09.215Z,0.50
2023-09-06T13:58:12.996Z,0.52
2023-09-06T14:03:15.985Z,0.70
2023-09-06T14:08:20.615Z,0.70
2023-09-06T14:13:25.249Z,0.98
2023-09-06T14:18:28.677Z,0.50
2023-09-06T14:23:31.864Z,0.73
2023-09-06T14:28:34.807Z,0.45
2023-09-06T14:33:39.158Z,0.50
2023-09-06T14:38:41.865Z,0.70
2023-09-06T14:43:45.673Z,0.70
2023-09-06T14:48:48.386Z,0.77
2023-09-06T14:53:52.011Z,1.17
2023-09-06T14:58:55.958Z,0.60
2023-09-06T15:03:58.721Z,1.50
2023-09-06T15:09:01.505Z,0.60
2023-09-06T15:14:06.150Z,0.95
2023-09-06T15:19:08.993Z,0.60
2023-09-06T15:24:14.354Z,1.08
2023-09-06T15:29:18.286Z,0.68
2023-09-06T15:34:28.539Z,0.98
2023-09-06T15:39:44.897Z,0.73
2023-09-06T15:44:47.626Z,0.80
2023-09-06T15:49:52.702Z,0.68
2023-09-06T15:54:55.361Z,0.55
2023-09-06T15:59:59.466Z,1.38
2023-09-06T16:10:10.732Z,0.93
2023-09-06T16:15:14.257Z,0.93
2023-09-06T16:20:17.058Z,0.93
2023-09-06T16:25:19.915Z,0.80
2023-09-06T16:30:22.714Z,1.55
2023-09-06T16:35:25.395Z,0.98
2023-09-06T16:40:28.435Z,1.13
2023-09-06T16:45:31.064Z,1.30
2023-09-06T16:50:33.727Z,1.10
2023-09-06T16:55:36.413Z,1.00
2023-09-06T17:00:42.007Z,1.60
2023-09-06T17:05:47.755Z,2.55
2023-09-06T17:10:50.671Z,2.72
2023-09-06T17:15:53.333Z,1.90
2023-09-06T17:20:56.184Z,2.42
2023-09-06T17:25:59.015Z,1.50
2023-09-06T17:31:02.614Z,1.83
2023-09-06T17:36:08.935Z,2.03
2023-09-06T17:41:11.859Z,2.85
2023-09-06T17:46:15.042Z,4.07
2023-09-06T17:51:17.844Z,4.93
2023-09-06T17:56:25.353Z,4.70
2023-09-06T18:01:31.180Z,8.15
2023-09-06T18:06:33.941Z,18.52
2023-09-06T18:11:37.307Z,11.93
2023-09-06T18:16:43.357Z,13.45
2023-09-06T18:21:46.379Z,12.05
2023-09-06T18:27:06.010Z,12.75
2023-09-06T18:32:10.473Z,17.15
2023-09-06T18:37:13.053Z,12.82
2023-09-06T18:42:15.715Z,8.68
2023-09-06T18:47:19.865Z,6.00
2023-09-06T18:52:24.190Z,5.97
2023-09-06T18:57:26.799Z,4.47
2023-09-06T19:02:29.439Z,4.82
2023-09-06T19:07:32.131Z,11.07
2023-09-06T19:12:37.267Z,25.98
2023-09-06T19:17:40.326Z,12.77
2023-09-06T19:22:44.072Z,7.18
2023-09-06T19:27:47.081Z,2.92
2023-09-06T19:32:49.832Z,3.13
2023-09-06T19:37:52.613Z,2.63
2023-09-06T19:42:55.802Z,2.97
2023-09-06T19:48:04.478Z,2.88
2023-09-06T19:53:07.138Z,3.13
2023-09-06T19:58:11.801Z,2.58
2023-09-06T20:03:14.782Z,2.13
2023-09-06T20:08:17.597Z,1.90
2023-09-06T20:13:21.732Z,2.10
2023-09-06T20:18:24.668Z,1.90
2023-09-06T20:23:31.743Z,1.60
2023-09-06T20:28:34.412Z,1.52
2023-09-06T20:33:38.075Z,1.35
2023-09-06T20:38:40.714Z,1.35
2023-09-06T20:43:43.304Z,1.30
2023-09-06T20:48:47.252Z,1.40
2023-09-06T20:53:50.462Z,1.47
2023-09-06T20:58:53.058Z,1.30
2023-09-06T21:03:55.641Z,1.60
2023-09-06T21:09:00.603Z,1.38
2023-09-06T21:19:06.768Z,1.10
2023-09-06T21:24:11.062Z,1.70
2023-09-06T21:29:27.362Z,1.33
2023-09-06T21:34:33.626Z,1.20
2023-09-06T21:39:36.331Z,1.77
2023-09-06T21:44:39.926Z,1.20
2023-09-06T21:49:42.767Z,1.05
2023-09-06T21:54:45.367Z,2.15
2023-09-06T21:59:48.076Z,1.10
2023-09-06T22:04:50.679Z,1.58
2023-09-06T22:10:12.207Z,1.35
2023-09-06T22:15:33.408Z,1.60
2023-09-06T22:20:41.481Z,1.38
2023-09-06T22:25:44.669Z,1.98
2023-09-06T22:30:47.396Z,2.95
2023-09-06T22:35:50.545Z,2.10
2023-09-06T22:40:53.116Z,2.30
2023-09-06T22:45:55.670Z,1.73
2023-09-06T22:50:58.237Z,2.90
2023-09-06T22:56:00.722Z,1.55
2023-09-06T23:01:07.918Z,1.63
2023-09-06T23:06:13.701Z,1.65
2023-09-06T23:11:16.987Z,1.73
2023-09-06T23:16:20.080Z,1.75
2023-09-06T23:21:25.540Z,1.83
2023-09-06T23:26:32.632Z,1.67
2023-09-06T23:31:38.372Z,1.80
2023-09-06T23:36:41.059Z,1.60
2023-09-06T23:41:44.327Z,1.90
2023-09-06T23:46:49.177Z,1.83
2023-09-06T23:51:51.803Z,2.10
2023-09-06T23:56:54.508Z,1.75
